Impacts METAR Board
IDs:

KIAD - Washington/Dulles In, VA, US

Updated at: 1300 UTC 23 Jun 2018
Potential Impact None Slight Moderate High
Time 23/01Z 23/02Z 23/03Z 23/04Z 23/05Z 23/06Z 23/07Z 23/08Z 23/09Z 23/10Z 23/11Z 23/12Z 23/13Z
Temp65 65 65 65 64 64 64 64 64 64 64 65 66
Dewpt64 64 64 64 64 64 64 64 64 64 64 65 66
Altim29.89 29.88 29.88 29.88 29.87 29.86 29.85 29.83 29.83 29.83 29.83 29.85 29.85
VIS10 10 7 5 3 2 2.5 2.5 2.5 0.13 0.25 0.25 0.25
CIG8 10 5 5 5 5 4 3 3 3 3 3 4
CoverOVCOVCOVCOVCOVCOVCOVCOVCOVCOVCOVCOVCOVC
FltCatIFRMVFRIFRIFRIFRIFRLIFRLIFRLIFRLIFRLIFRLIFRLIFR
WX----TSRA BRBRBRBRBR-RA BRBRBRBRBR
WDir90807050704035036034036010340330
WSpd9 11 12 3 4 4 4 3 5 3 5 4 4
WGst-- 18 -- -- -- -- -- -- -- -- -- -- --
Raw hourly METARs
KIAD 230052Z 09009KT 10SM OVC008 18/18 A2989 RMK AO2 SLP118 T01830178
KIAD 230152Z 08011G18KT 10SM OVC010 18/18 A2988 RMK AO2 SLP115 T01830178
KIAD 230252Z 07012KT 7SM TS BKN005 OVC012CB 18/18 A2988 RMK AO2 TSB35 SLP115 OCNL LTGIC OHD TS OHD MOV NE T01830178 58002
KIAD 230352Z 05003KT 5SM RA BR BKN005 OVC012CB 18/18 A2988 RMK AO2 RAB0253 TSE38 SLP118 CB OHD MOV NE P0003 T01830178
KIAD 230452Z 07004KT 3SM BR FEW003 BKN005 OVC011 18/18 A2987 RMK AO2 RAE19 SLP112 P0003 T01780178 402220178 $
KIAD 230552Z 04004KT 2SM BR OVC005 18/18 A2986 RMK AO2 RAB0455E47 SLP111 P0000 60006 T01780178 10189 20178 58004
KIAD 230652Z 35004KT 2 1/2SM BR OVC004 18/18 A2985 RMK AO2 DZB14E35 SLP107 P0001 T01780178 $
KIAD 230752Z 36003KT 2 1/2SM BR OVC003 18/18 A2983 RMK AO2 SLP101 T01780178 $
KIAD 230852Z 34005KT 2 1/2SM -RA BR OVC003 18/18 A2983 RMK AO2 RAB47 SLP098 P0000 60001 T01780178 56013 $
KIAD 230955Z 36003KT 1/8SM R01R/P6000FT BR OVC003 18/18 A2983 RMK AO2 SFC VIS 2 1/2 T01780178 $
KIAD 231052Z 01005KT 1/4SM R01R/6000FT BR OVC003 18/18 A2983 RMK AO2 SFC VIS 2 1/2 SLP100 T01780178 $
KIAD 231152Z 34004KT 1/4SM R01R/4000VP6000FT BR OVC003 18/18 A2985 RMK AO2 SFC VIS 1 SLP105 60001 70046 T01830183 10183 20178 53007 $
KIAD 231252Z 33004KT 1/4SM R01R/P6000FT BR OVC004 19/19 A2985 RMK AO2 SFC VIS 2 SLP107 T01890189 $



Page loaded:  13:42 UTC  |   06:42 AM Pacific  |   07:42 AM Mountain  |   08:42 AM Central  |   09:42 AM Eastern

 

ADVISORIES

FORECASTS

FORECASTS

OBSERVATIONS

USER TOOLS

ABOUT US